createdAt,value
2022-09-23T00:01:14.989Z,101777.52
2022-09-23T00:03:49.029Z,101777.16
2022-09-23T00:06:24.009Z,101774.59
2022-09-23T00:08:52.704Z,101773.92
2022-09-23T00:11:28.216Z,101769.56
2022-09-23T00:14:00.426Z,101769.20
2022-09-23T00:16:33.490Z,101766.39
2022-09-23T00:19:04.831Z,101763.70
2022-09-23T00:21:31.518Z,101759.02
2022-09-23T00:23:58.359Z,101757.75
2022-09-23T00:26:25.105Z,101754.55
2022-09-23T00:28:52.580Z,101750.54
2022-09-23T00:31:24.066Z,101749.15
2022-09-23T00:34:00.881Z,101752.28
2022-09-23T00:36:29.537Z,101746.58
2022-09-23T00:38:56.957Z,101744.89
2022-09-23T00:41:25.229Z,101742.92
2022-09-23T00:43:58.579Z,101741.32
2022-09-23T00:46:43.565Z,101739.29
2022-09-23T00:49:29.292Z,101741.31
2022-09-23T00:52:07.429Z,101737.21
2022-09-23T00:54:34.351Z,101739.64
2022-09-23T00:57:03.736Z,101737.84
2022-09-23T00:59:30.521Z,101742.48
2022-09-23T01:02:00.240Z,101738.76
2022-09-23T01:04:29.748Z,101735.69
2022-09-23T01:06:56.507Z,101737.25
2022-09-23T01:09:25.250Z,101733.98
2022-09-23T01:12:08.510Z,101729.77
2022-09-23T01:14:55.962Z,101725.21
2022-09-23T01:17:53.581Z,101722.16
2022-09-23T01:20:42.095Z,101722.45
2022-09-23T01:23:30.354Z,101720.42
2022-09-23T01:26:38.086Z,101714.44
2022-09-23T01:29:57.551Z,101716.54
2022-09-23T01:33:08.803Z,101716.71
2022-09-23T01:35:49.678Z,101716.97
2022-09-23T01:38:49.997Z,101710.05
2022-09-23T01:41:26.783Z,101706.65
2022-09-23T01:44:11.342Z,101710.31
2022-09-23T01:46:40.573Z,101708.79
2022-09-23T01:49:27.625Z,101706.29
2022-09-23T01:52:06.828Z,101705.84
2022-09-23T01:54:50.730Z,101702.48
2022-09-23T01:57:31.940Z,101699.94
2022-09-23T02:00:15.238Z,101702.98
2022-09-23T02:03:04.942Z,101698.87
2022-09-23T02:05:59.181Z,101698.29
2022-09-23T02:08:35.952Z,101696.63
2022-09-23T02:11:10.269Z,101696.42
2022-09-23T02:14:16.974Z,101695.69
2022-09-23T02:16:48.518Z,101689.69
2022-09-23T02:19:36.144Z,101686.15
2022-09-23T02:22:15.817Z,101688.31
2022-09-23T02:24:42.787Z,101682.69
2022-09-23T02:27:47.551Z,101676.46
2022-09-23T02:30:27.923Z,101673.23
2022-09-23T02:33:08.432Z,101674.31
2022-09-23T02:35:49.121Z,101675.48
2022-09-23T02:38:51.174Z,101669.56
2022-09-23T02:41:26.726Z,101662.45
2022-09-23T02:44:09.043Z,101658.95
2022-09-23T02:46:37.084Z,101659.39
2022-09-23T02:49:28.223Z,101661.53
2022-09-23T02:51:56.953Z,101649.90
2022-09-23T02:54:28.875Z,101653.04
2022-09-23T02:56:57.352Z,101652.94
2022-09-23T02:59:24.727Z,101648.64
2022-09-23T03:02:35.074Z,101646.28
2022-09-23T03:05:24.965Z,101643.98
2022-09-23T03:08:15.146Z,101638.27
2022-09-23T03:11:17.504Z,101637.89
2022-09-23T03:14:16.828Z,101637.14
2022-09-23T03:17:10.624Z,101637.16
2022-09-23T03:19:54.121Z,101635.00
2022-09-23T03:22:48.455Z,101625.98
2022-09-23T03:25:21.837Z,101626.57
2022-09-23T03:27:48.507Z,101624.27
2022-09-23T03:30:18.307Z,101620.28
2022-09-23T03:32:47.119Z,101620.69
2022-09-23T03:35:14.915Z,101618.95
2022-09-23T03:38:10.142Z,101616.73
2022-09-23T03:40:44.516Z,101614.16
2022-09-23T03:43:13.440Z,101617.51
2022-09-23T03:45:42.674Z,101615.39
2022-09-23T03:48:09.667Z,101613.01
2022-09-23T03:50:36.894Z,101615.14
2022-09-23T03:53:03.560Z,101613.26
2022-09-23T03:55:31.247Z,101613.77
2022-09-23T03:57:59.018Z,101610.09
2022-09-23T04:00:26.083Z,101608.43
2022-09-23T04:02:52.742Z,101612.51
2022-09-23T04:05:19.470Z,101610.29
2022-09-23T04:07:46.221Z,101609.08
2022-09-23T04:10:13.029Z,101605.77
2022-09-23T04:12:39.723Z,101600.56
2022-09-23T04:15:07.344Z,101597.47
2022-09-23T04:17:34.305Z,101594.27
2022-09-23T04:20:01.172Z,101597.52
2022-09-23T04:22:27.805Z,101593.39
2022-09-23T04:24:54.728Z,101590.92
2022-09-23T04:27:21.412Z,101591.95
2022-09-23T04:29:48.177Z,101588.56
2022-09-23T04:32:14.802Z,101590.75
2022-09-23T04:34:41.431Z,101588.12
2022-09-23T04:37:08.119Z,101588.89
2022-09-23T04:39:34.976Z,101586.30
2022-09-23T04:42:01.641Z,101585.73
2022-09-23T04:44:28.279Z,101586.30
2022-09-23T04:46:55.098Z,101586.62
2022-09-23T04:49:22.018Z,101586.73
2022-09-23T04:51:48.827Z,101585.45
2022-09-23T04:54:15.485Z,101579.77
2022-09-23T04:56:42.784Z,101584.26
2022-09-23T04:59:09.436Z,101585.83
2022-09-23T05:01:37.964Z,101586.36
2022-09-23T05:04:10.972Z,101586.02
2022-09-23T05:06:38.201Z,101581.80
2022-09-23T05:09:08.430Z,101583.19
2022-09-23T05:11:36.320Z,101580.48
2022-09-23T05:14:03.325Z,101583.89
2022-09-23T05:16:30.333Z,101579.10
2022-09-23T05:18:58.123Z,101581.59
2022-09-23T05:21:29.012Z,101588.61
2022-09-23T05:24:01.520Z,101586.10
2022-09-23T05:26:31.331Z,101587.17
2022-09-23T05:28:59.157Z,101585.59
2022-09-23T05:31:29.544Z,101582.77
2022-09-23T05:34:00.284Z,101580.95
2022-09-23T05:36:33.086Z,101580.27
2022-09-23T05:39:04.268Z,101575.56
2022-09-23T05:41:32.395Z,101577.77
2022-09-23T05:43:59.862Z,101576.44
2022-09-23T05:46:30.148Z,101575.52
2022-09-23T05:49:02.698Z,101576.95
2022-09-23T05:51:32.392Z,101577.11
2022-09-23T05:54:02.843Z,101574.70
2022-09-23T05:56:32.027Z,101574.77
2022-09-23T05:59:01.604Z,101575.33
2022-09-23T06:01:33.662Z,101576.29
2022-09-23T06:04:04.199Z,101573.02
2022-09-23T06:06:39.499Z,101573.39
2022-09-23T06:09:11.334Z,101578.77
2022-09-23T06:11:37.966Z,101579.39
2022-09-23T06:14:05.349Z,101576.46
2022-09-23T06:16:35.528Z,101576.23
2022-09-23T06:19:06.743Z,101577.73
2022-09-23T06:21:37.993Z,101575.66
2022-09-23T06:24:06.873Z,101572.67
2022-09-23T06:26:35.528Z,101574.36
2022-09-23T06:29:07.921Z,101576.41
2022-09-23T06:31:34.629Z,101577.73
2022-09-23T06:34:10.446Z,101574.36
2022-09-23T06:36:43.912Z,101574.17
2022-09-23T06:39:16.092Z,101576.71
2022-09-23T06:41:44.719Z,101573.98
2022-09-23T06:44:11.410Z,101571.27
2022-09-23T06:46:38.229Z,101569.19
2022-09-23T06:49:05.011Z,101568.15
2022-09-23T06:51:31.989Z,101567.05
2022-09-23T06:53:58.634Z,101570.06
2022-09-23T06:56:25.262Z,101568.19
2022-09-23T06:58:53.074Z,101572.10
2022-09-23T07:01:20.142Z,101573.82
2022-09-23T07:03:48.542Z,101572.52
2022-09-23T07:06:17.172Z,101570.27
2022-09-23T07:08:47.062Z,101575.86
2022-09-23T07:11:15.663Z,101582.91
2022-09-23T07:13:42.755Z,101581.05
2022-09-23T07:16:11.562Z,101582.39
2022-09-23T07:18:39.537Z,101579.90
2022-09-23T07:21:16.051Z,101584.49
2022-09-23T07:23:48.548Z,101588.52
2022-09-23T07:26:17.289Z,101588.19
2022-09-23T07:28:44.006Z,101592.55
2022-09-23T07:31:27.024Z,101588.94
2022-09-23T07:34:03.496Z,101586.83
2022-09-23T07:36:33.793Z,101589.44
2022-09-23T07:39:03.511Z,101584.60
2022-09-23T07:41:33.346Z,101578.79
2022-09-23T07:44:01.157Z,101578.98
2022-09-23T07:46:32.485Z,101577.91
2022-09-23T07:49:00.529Z,101583.41
2022-09-23T07:51:36.453Z,101576.55
2022-09-23T07:54:09.959Z,101576.80
2022-09-23T07:56:38.483Z,101572.36
2022-09-23T07:59:09.219Z,101572.70
2022-09-23T08:01:44.137Z,101573.55
2022-09-23T08:04:23.187Z,101569.45
2022-09-23T08:06:54.773Z,101569.08
2022-09-23T08:09:25.991Z,101566.14
2022-09-23T08:11:53.745Z,101571.15
2022-09-23T08:14:22.528Z,101564.60
2022-09-23T08:16:50.794Z,101560.48
2022-09-23T08:19:18.825Z,101556.58
2022-09-23T08:21:47.650Z,101558.23
2022-09-23T08:24:21.864Z,101555.58
2022-09-23T08:26:48.523Z,101558.74
2022-09-23T08:29:17.970Z,101559.45
2022-09-23T08:31:46.006Z,101559.23
2022-09-23T08:34:13.417Z,101555.65
2022-09-23T08:36:40.080Z,101557.65
2022-09-23T08:39:06.916Z,101552.61
2022-09-23T08:41:42.842Z,101549.23
2022-09-23T08:44:28.018Z,101542.63
2022-09-23T08:47:47.547Z,101546.86
2022-09-23T08:50:24.101Z,101542.82
2022-09-23T08:52:58.685Z,101534.16
2022-09-23T08:55:51.775Z,101525.57
2022-09-23T08:58:55.083Z,101527.60
2022-09-23T09:01:43.064Z,101528.70
2022-09-23T09:04:39.369Z,101526.08
2022-09-23T09:07:35.099Z,101520.37
2022-09-23T09:10:25.540Z,101522.17
2022-09-23T09:13:20.277Z,101519.97
2022-09-23T09:16:16.022Z,101517.77
2022-09-23T09:19:00.339Z,101515.48
2022-09-23T09:21:39.861Z,101516.10
2022-09-23T09:24:35.343Z,101521.00
2022-09-23T09:27:12.882Z,101515.00
2022-09-23T09:29:49.907Z,101513.81
2022-09-23T09:32:35.976Z,101510.98
2022-09-23T09:35:20.905Z,101505.40
2022-09-23T09:37:47.984Z,101504.45
2022-09-23T09:40:17.347Z,101500.59
2022-09-23T09:42:49.967Z,101494.81
2022-09-23T09:45:46.903Z,101493.49
2022-09-23T09:48:23.821Z,101488.02
2022-09-23T09:50:53.875Z,101484.71
2022-09-23T09:53:32.016Z,101479.87
2022-09-23T09:56:14.820Z,101474.80
2022-09-23T09:58:55.795Z,101467.35
2022-09-23T10:01:34.550Z,101467.56
2022-09-23T10:04:06.543Z,101462.20
2022-09-23T10:06:35.930Z,101460.05
2022-09-23T10:09:08.461Z,101456.44
2022-09-23T10:11:35.844Z,101452.09
2022-09-23T10:18:38.356Z,101456.06
2022-09-23T10:21:23.090Z,101447.30
2022-09-23T10:23:58.224Z,101444.80
2022-09-23T10:26:38.899Z,101443.77
2022-09-23T10:30:01.213Z,101446.23
2022-09-23T10:32:32.616Z,101442.73
2022-09-23T10:35:16.974Z,101439.70
2022-09-23T10:37:58.947Z,101438.05
2022-09-23T10:41:00.308Z,101435.35
2022-09-23T10:44:00.654Z,101436.52
2022-09-23T10:46:38.236Z,101428.34
2022-09-23T10:49:52.719Z,101420.19
2022-09-23T10:52:35.241Z,101423.39
2022-09-23T10:55:40.290Z,101423.56
2022-09-23T10:58:21.857Z,101420.27
2022-09-23T11:01:06.965Z,101419.98
2022-09-23T11:04:16.586Z,101415.13
2022-09-23T11:07:07.516Z,101412.02
2022-09-23T11:10:18.405Z,101413.34
2022-09-23T11:13:05.991Z,101409.66
2022-09-23T11:16:02.719Z,101405.39
2022-09-23T11:19:04.045Z,101400.98
2022-09-23T11:22:14.090Z,101395.36
2022-09-23T11:24:50.284Z,101385.20
2022-09-23T11:27:52.536Z,101383.63
2022-09-23T11:30:21.214Z,101378.67
2022-09-23T11:33:04.371Z,101376.98
2022-09-23T11:35:37.293Z,101370.82
2022-09-23T11:38:28.759Z,101370.02
2022-09-23T11:41:03.303Z,101363.16
2022-09-23T11:43:39.920Z,101361.09
2022-09-23T11:46:24.479Z,101357.31
2022-09-23T11:49:03.745Z,101352.81
2022-09-23T11:51:42.477Z,101349.00
2022-09-23T11:54:44.277Z,101349.50
2022-09-23T11:57:45.204Z,101341.95
2022-09-23T12:00:22.093Z,101345.75
2022-09-23T12:03:07.279Z,101336.86
2022-09-23T12:06:00.177Z,101335.36
2022-09-23T12:08:37.265Z,101330.60
2022-09-23T12:11:40.559Z,101328.46
2022-09-23T12:14:33.650Z,101325.25
2022-09-23T12:17:49.222Z,101324.20
2022-09-23T12:20:49.123Z,101322.79
2022-09-23T12:24:18.451Z,101318.52
2022-09-23T12:26:57.290Z,101312.63
2022-09-23T12:29:32.094Z,101310.54
2022-09-23T12:31:59.976Z,101311.07
2022-09-23T12:34:49.144Z,101309.84
2022-09-23T12:37:37.001Z,101306.46
2022-09-23T12:40:31.334Z,101303.80
2022-09-23T12:43:01.229Z,101294.23
2022-09-23T12:45:34.799Z,101293.88
2022-09-23T12:48:24.216Z,101289.98
2022-09-23T12:51:13.326Z,101291.75
2022-09-23T12:53:40.143Z,101286.97
2022-09-23T12:56:26.659Z,101287.48
2022-09-23T12:58:53.238Z,101286.25
2022-09-23T13:01:25.254Z,101285.00
2022-09-23T13:04:17.528Z,101283.38
2022-09-23T13:07:03.516Z,101279.85
2022-09-23T13:09:39.483Z,101276.48
2022-09-23T13:12:31.203Z,101269.55
2022-09-23T13:15:04.654Z,101267.44
2022-09-23T13:17:37.517Z,101263.72
2022-09-23T13:20:05.879Z,101256.40
2022-09-23T13:23:00.042Z,101256.58
2022-09-23T13:25:32.517Z,101255.21
2022-09-23T13:28:02.823Z,101254.47
2022-09-23T13:30:30.392Z,101253.24
2022-09-23T13:33:11.149Z,101252.53
2022-09-23T13:35:44.531Z,101247.17
2022-09-23T13:38:24.809Z,101243.23
2022-09-23T13:41:17.628Z,101235.07
2022-09-23T13:43:50.614Z,101230.34
2022-09-23T13:46:23.138Z,101222.31
2022-09-23T13:48:57.217Z,101221.63
2022-09-23T13:51:33.879Z,101217.45
2022-09-23T13:54:04.638Z,101215.11
2022-09-23T13:56:35.410Z,101204.02
2022-09-23T13:59:38.194Z,101203.75
2022-09-23T14:02:19.910Z,101203.07
2022-09-23T14:04:47.001Z,101195.20
2022-09-23T14:07:16.804Z,101189.36
2022-09-23T14:09:51.173Z,101192.21
2022-09-23T14:12:22.566Z,101190.09
2022-09-23T14:14:53.137Z,101190.92
2022-09-23T14:17:22.973Z,101188.11
2022-09-23T14:19:51.352Z,101185.31
2022-09-23T14:22:25.327Z,101187.08
2022-09-23T14:24:54.292Z,101187.29
2022-09-23T14:27:32.814Z,101183.97
2022-09-23T14:30:03.078Z,101176.48
2022-09-23T14:32:32.210Z,101175.82
2022-09-23T14:35:03.809Z,101170.77
2022-09-23T14:37:55.109Z,101169.52
2022-09-23T14:40:35.991Z,101162.09
2022-09-23T14:43:25.151Z,101165.92
2022-09-23T14:45:58.737Z,101166.38
2022-09-23T14:48:29.306Z,101163.65
2022-09-23T14:50:59.817Z,101162.92
2022-09-23T14:53:46.402Z,101158.48
2022-09-23T14:56:24.672Z,101160.94
2022-09-23T14:59:00.567Z,101157.20
2022-09-23T15:01:33.634Z,101161.40
2022-09-23T15:04:27.867Z,101163.84
2022-09-23T15:07:18.449Z,101162.62
2022-09-23T15:09:45.841Z,101160.97
2022-09-23T15:12:21.472Z,101156.60
2022-09-23T15:14:56.598Z,101159.10
2022-09-23T15:17:23.144Z,101156.45
2022-09-23T15:20:08.946Z,101157.86
2022-09-23T15:22:55.942Z,101158.95
2022-09-23T15:25:40.689Z,101158.59
2022-09-23T15:28:10.189Z,101158.78
2022-09-23T15:30:39.420Z,101161.80
2022-09-23T15:33:06.860Z,101160.54
2022-09-23T15:35:33.652Z,101157.88
2022-09-23T15:38:03.314Z,101154.33
2022-09-23T15:40:34.402Z,101154.15
2022-09-23T15:43:20.164Z,101156.10
2022-09-23T15:46:04.934Z,101157.67
2022-09-23T15:48:43.649Z,101163.32
2022-09-23T15:51:15.208Z,101160.11
2022-09-23T15:53:41.954Z,101158.50
2022-09-23T15:56:08.728Z,101153.55
2022-09-23T15:58:35.769Z,101147.50
2022-09-23T16:01:04.211Z,101149.80
2022-09-23T16:03:31.059Z,101150.50
2022-09-23T16:06:02.953Z,101149.97
2022-09-23T16:08:32.661Z,101153.13
2022-09-23T16:10:59.658Z,101149.95
2022-09-23T16:13:26.369Z,101147.30
2022-09-23T16:16:52.446Z,101152.55
2022-09-23T16:19:19.495Z,101154.06
2022-09-23T16:21:46.612Z,101150.85
2022-09-23T16:24:18.672Z,101149.64
2022-09-23T16:26:48.553Z,101149.96
2022-09-23T16:29:15.476Z,101146.60
2022-09-23T16:31:42.738Z,101150.11
2022-09-23T16:34:09.700Z,101146.73
2022-09-23T16:36:41.979Z,101147.91
2022-09-23T16:39:12.832Z,101145.98
2022-09-23T16:41:40.548Z,101146.11
2022-09-23T16:44:09.567Z,101146.06
2022-09-23T16:46:36.590Z,101142.81
2022-09-23T16:49:04.833Z,101143.66
2022-09-23T16:51:38.293Z,101142.75
2022-09-23T16:54:10.341Z,101139.34
2022-09-23T16:56:44.176Z,101141.91
2022-09-23T16:59:13.551Z,101139.55
2022-09-23T17:01:59.180Z,101142.66
2022-09-23T17:04:27.831Z,101138.21
2022-09-23T17:06:56.104Z,101135.65
2022-09-23T17:09:27.324Z,101135.70
2022-09-23T17:12:24.244Z,101131.74
2022-09-23T17:14:52.654Z,101129.73
2022-09-23T17:17:19.384Z,101132.96
2022-09-23T17:19:46.125Z,101130.74
2022-09-23T17:22:13.350Z,101126.02
2022-09-23T17:24:40.067Z,101127.35
2022-09-23T17:27:06.883Z,101120.39
2022-09-23T17:29:33.570Z,101123.13
2022-09-23T17:32:00.297Z,101123.44
2022-09-23T17:34:28.920Z,101125.31
2022-09-23T17:36:55.654Z,101126.88
2022-09-23T17:39:22.269Z,101123.45
2022-09-23T17:41:48.941Z,101128.31
2022-09-23T17:44:17.652Z,101125.60
2022-09-23T17:46:44.639Z,101121.98
2022-09-23T17:49:12.114Z,101125.17
2022-09-23T17:51:39.048Z,101130.25
2022-09-23T17:54:06.709Z,101130.69
2022-09-23T17:56:33.899Z,101130.23
2022-09-23T17:59:02.805Z,101134.02
2022-09-23T18:01:30.624Z,101135.89
2022-09-23T18:04:05.753Z,101139.86
2022-09-23T18:06:37.322Z,101139.44
2022-09-23T18:09:08.609Z,101144.25
2022-09-23T18:11:43.379Z,101141.55
2022-09-23T18:14:21.555Z,101140.81
2022-09-23T18:16:52.410Z,101138.86
2022-09-23T18:19:24.924Z,101137.79
2022-09-23T18:21:56.094Z,101135.84
2022-09-23T18:24:33.043Z,101133.64
2022-09-23T18:27:01.641Z,101134.66
2022-09-23T18:29:28.636Z,101134.35
2022-09-23T18:31:56.172Z,101134.18
2022-09-23T18:34:23.599Z,101136.27
2022-09-23T18:36:50.912Z,101133.02
2022-09-23T18:39:18.055Z,101131.06
2022-09-23T18:41:44.859Z,101131.36
2022-09-23T18:44:11.661Z,101131.00
2022-09-23T18:46:38.700Z,101127.67
2022-09-23T18:49:23.972Z,101130.82
2022-09-23T18:51:55.563Z,101125.88
2022-09-23T18:54:24.813Z,101127.03
2022-09-23T18:56:54.502Z,101128.20
2022-09-23T18:59:25.100Z,101127.67
2022-09-23T19:01:55.337Z,101126.73
2022-09-23T19:04:25.080Z,101123.87
2022-09-23T19:06:53.922Z,101123.16
2022-09-23T19:09:20.753Z,101126.81
2022-09-23T19:11:52.162Z,101123.61
2022-09-23T19:14:19.604Z,101123.20
2022-09-23T19:16:48.925Z,101121.94
2022-09-23T19:19:15.894Z,101123.73
2022-09-23T19:21:42.654Z,101121.90
2022-09-23T19:24:15.607Z,101119.38
2022-09-23T19:26:43.917Z,101119.02
2022-09-23T19:29:19.395Z,101115.84
2022-09-23T19:31:46.159Z,101112.14
2022-09-23T19:34:19.662Z,101110.37
2022-09-23T19:36:47.690Z,101104.89
2022-09-23T19:39:21.076Z,101103.70
2022-09-23T19:41:49.589Z,101105.34
2022-09-23T19:44:17.367Z,101106.92
2022-09-23T19:46:46.133Z,101107.40
2022-09-23T19:49:13.721Z,101107.27
2022-09-23T19:51:41.035Z,101103.35
2022-09-23T19:54:09.094Z,101104.15
2022-09-23T19:56:36.538Z,101105.81
2022-09-23T19:59:05.747Z,101107.13
2022-09-23T20:01:33.413Z,101106.45
2022-09-23T20:04:00.635Z,101105.89
2022-09-23T20:06:38.143Z,101105.05
2022-09-23T20:09:05.950Z,101102.36
2022-09-23T20:11:33.515Z,101101.08
2022-09-23T20:14:03.819Z,101106.05
2022-09-23T20:16:35.048Z,101102.74
2022-09-23T20:19:04.100Z,101102.93
2022-09-23T20:21:33.354Z,101099.95
2022-09-23T20:24:00.778Z,101096.25
2022-09-23T20:26:46.228Z,101097.83
2022-09-23T20:29:13.112Z,101094.83
2022-09-23T20:31:42.898Z,101096.17
2022-09-23T20:34:10.828Z,101088.82
2022-09-23T20:36:41.356Z,101088.28
2022-09-23T20:39:10.226Z,101087.75
2022-09-23T20:41:39.279Z,101088.18
2022-09-23T20:44:12.182Z,101086.73
2022-09-23T20:46:42.966Z,101091.05
2022-09-23T20:49:14.228Z,101087.16
2022-09-23T20:51:40.850Z,101089.23
2022-09-23T20:54:07.694Z,101086.86
2022-09-23T20:56:34.645Z,101088.33
2022-09-23T20:59:02.747Z,101087.49
2022-09-23T21:01:35.220Z,101087.63
2022-09-23T21:04:04.847Z,101087.34
2022-09-23T21:06:34.942Z,101085.91
2022-09-23T21:09:01.999Z,101083.34
2022-09-23T21:11:29.270Z,101079.71
2022-09-23T21:13:56.522Z,101075.32
2022-09-23T21:16:24.025Z,101070.73
2022-09-23T21:18:51.940Z,101071.38
2022-09-23T21:21:22.225Z,101066.70
2022-09-23T21:23:50.434Z,101064.22
2022-09-23T21:26:21.463Z,101067.34
2022-09-23T21:28:55.374Z,101067.08
2022-09-23T21:31:26.824Z,101067.63
2022-09-23T21:34:06.337Z,101067.85
2022-09-23T21:36:37.096Z,101063.30
2022-09-23T21:39:09.204Z,101061.35
2022-09-23T21:41:36.866Z,101061.15
2022-09-23T21:44:04.951Z,101058.52
2022-09-23T21:46:35.377Z,101056.52
2022-09-23T21:49:03.626Z,101057.70
2022-09-23T21:51:40.125Z,101053.55
2022-09-23T21:54:16.134Z,101052.35
2022-09-23T21:56:44.322Z,101052.73
2022-09-23T21:59:11.547Z,101053.98
2022-09-23T22:01:43.516Z,101051.77
2022-09-23T22:04:17.976Z,101052.68
2022-09-23T22:06:45.544Z,101050.19
2022-09-23T22:09:17.754Z,101050.83
2022-09-23T22:12:04.273Z,101050.29
2022-09-23T22:14:31.608Z,101052.04
2022-09-23T22:17:02.256Z,101049.73
2022-09-23T22:19:35.800Z,101048.08
2022-09-23T22:22:12.742Z,101051.64
2022-09-23T22:24:44.798Z,101048.39
2022-09-23T22:27:14.880Z,101046.67
2022-09-23T22:30:00.507Z,101046.05
2022-09-23T22:32:43.683Z,101043.95
2022-09-23T22:35:17.881Z,101039.92
2022-09-23T22:37:45.961Z,101039.84
2022-09-23T22:40:15.771Z,101037.51
2022-09-23T22:42:43.868Z,101035.38
2022-09-23T22:45:12.265Z,101034.27
2022-09-23T22:47:41.126Z,101027.94
2022-09-23T22:50:09.850Z,101023.58
2022-09-23T22:52:37.873Z,101023.61
2022-09-23T22:55:07.888Z,101023.78
2022-09-23T22:57:35.418Z,101020.14
2022-09-23T23:00:05.657Z,101019.06
2022-09-23T23:02:32.778Z,101022.77
2022-09-23T23:05:00.878Z,101022.00
2022-09-23T23:07:27.670Z,101023.03
2022-09-23T23:09:54.430Z,101026.11
2022-09-23T23:12:22.409Z,101022.16
2022-09-23T23:14:49.724Z,101022.05
2022-09-23T23:17:18.641Z,101018.15
2022-09-23T23:19:45.364Z,101016.23
2022-09-23T23:22:12.044Z,101013.89
2022-09-23T23:24:38.868Z,101011.73
2022-09-23T23:27:05.473Z,101012.41
2022-09-23T23:29:32.190Z,101011.13
2022-09-23T23:31:58.875Z,101009.33
2022-09-23T23:34:25.616Z,101006.90
2022-09-23T23:36:56.573Z,101004.76
2022-09-23T23:39:25.452Z,101004.83
2022-09-23T23:41:55.038Z,101001.84
2022-09-23T23:44:24.638Z,101000.95
2022-09-23T23:46:51.751Z,100998.35
2022-09-23T23:49:18.610Z,101001.39
2022-09-23T23:51:45.286Z,100999.49
2022-09-23T23:54:12.680Z,100998.05
2022-09-23T23:56:39.479Z,100998.18
2022-09-23T23:59:06.785Z,100996.81
